Time;durP1;ratioP1;P1;durP2;ratioP2;P2;SDS_P1;SDS_P2;PMS_P1;PMS_P2;Temp;Humidity;BMP_temperature;BMP_pressure;BME280_temperature;BME280_humidity;BME280_pressure;Samples;Min_cycle;Max_cycle;Signal;HPM_P1;HPM_P2
2022/04/17 00:00:14;;;;;;;7.03;5.43;;;9.40;50.10;;;;;;2093364;28;20035;-67
2022/04/17 00:01:15;;;;;;;7.43;5.55;;;9.50;50.10;;;;;;2093549;28;20028;-67
2022/04/17 00:02:15;;;;;;;7.25;5.75;;;9.50;50.10;;;;;;2095827;28;20075;-67
2022/04/17 00:03:16;;;;;;;7.72;5.75;;;9.40;49.90;;;;;;2092694;28;20021;-67
2022/04/17 00:04:17;;;;;;;9.35;5.68;;;9.50;50.00;;;;;;2095687;28;20392;-67
2022/04/17 00:05:17;;;;;;;7.00;5.45;;;9.40;50.10;;;;;;2091489;28;20044;-67
2022/04/17 00:06:18;;;;;;;7.00;5.63;;;9.40;50.10;;;;;;2095577;28;20028;-67
2022/04/17 00:07:19;;;;;;;7.97;5.57;;;9.50;50.10;;;;;;2095536;28;20028;-67
2022/04/17 00:08:20;;;;;;;6.43;5.00;;;9.50;50.30;;;;;;2095073;28;20626;-67
2022/04/17 00:09:20;;;;;;;8.45;5.65;;;9.50;50.30;;;;;;2092951;28;20029;-67
2022/04/17 00:10:21;;;;;;;6.78;4.95;;;9.50;50.20;;;;;;2095438;28;20369;-67
2022/04/17 00:11:22;;;;;;;7.30;5.43;;;9.50;50.20;;;;;;2092079;28;20056;-67
2022/04/17 00:12:23;;;;;;;7.95;4.93;;;9.50;50.40;;;;;;2099204;28;20070;-67
2022/04/17 00:13:25;;;;;;;7.90;5.43;;;9.50;50.30;;;;;;2099279;28;20031;-67
2022/04/17 00:14:25;;;;;;;9.52;5.40;;;9.50;50.40;;;;;;2095735;28;20017;-67
2022/04/17 00:15:26;;;;;;;7.93;5.93;;;9.50;50.40;;;;;;2093596;28;20021;-67
2022/04/17 00:16:27;;;;;;;8.38;5.68;;;9.50;50.50;;;;;;2092459;28;20017;-67
2022/04/17 00:17:27;;;;;;;6.65;5.22;;;9.50;50.40;;;;;;2095737;28;20051;-67
2022/04/17 00:18:28;;;;;;;5.90;5.30;;;9.40;50.50;;;;;;2092367;28;20383;-67
2022/04/17 00:19:28;;;;;;;9.10;5.65;;;9.40;50.60;;;;;;2093985;28;20075;-67
2022/04/17 00:20:29;;;;;;;6.75;5.53;;;9.40;50.60;;;;;;2096119;28;20154;-67
2022/04/17 00:21:29;;;;;;;8.77;6.00;;;9.40;50.70;;;;;;2097496;28;20017;-67
2022/04/17 00:22:30;;;;;;;8.30;5.70;;;9.40;50.70;;;;;;2096361;28;20017;-67
2022/04/17 00:23:32;;;;;;;6.53;5.18;;;9.40;50.80;;;;;;2098391;28;20039;-67
2022/04/17 00:24:33;;;;;;;9.05;6.20;;;9.40;51.00;;;;;;2099101;28;20064;-67
2022/04/17 00:25:34;;;;;;;7.15;6.10;;;9.40;50.90;;;;;;2097736;28;20440;-67
2022/04/17 00:26:34;;;;;;;8.57;6.15;;;9.40;51.00;;;;;;2095060;28;20288;-67
2022/04/17 00:27:36;;;;;;;7.75;6.03;;;9.30;51.00;;;;;;2092491;28;20389;-67
2022/04/17 00:28:36;;;;;;;8.40;6.28;;;9.30;51.10;;;;;;2098604;28;20033;-67
2022/04/17 00:29:37;;;;;;;8.10;6.03;;;9.30;51.30;;;;;;2097452;28;20052;-67
2022/04/17 00:30:38;;;;;;;9.85;6.47;;;9.30;51.30;;;;;;2096217;28;20040;-67
2022/04/17 00:31:39;;;;;;;7.05;5.63;;;9.30;51.30;;;;;;2093320;28;20025;-67
2022/04/17 00:32:39;;;;;;;8.30;5.80;;;9.30;51.30;;;;;;2093631;28;20032;-67
2022/04/17 00:33:40;;;;;;;10.40;5.88;;;9.30;51.40;;;;;;2098798;28;20028;-67
2022/04/17 00:34:40;;;;;;;8.55;6.35;;;9.30;51.50;;;;;;2097396;28;20479;-67
2022/04/17 00:35:43;;;;;;;9.55;5.63;;;9.30;51.60;;;;;;2096927;28;20024;-67
2022/04/17 00:36:44;;;;;;;9.45;6.68;;;9.20;51.60;;;;;;2095251;28;20063;-67
2022/04/17 00:37:45;;;;;;;8.60;5.78;;;9.20;51.60;;;;;;2097445;28;20024;-67
2022/04/17 00:38:46;;;;;;;10.20;6.13;;;9.30;51.60;;;;;;2093288;28;20071;-67
2022/04/17 00:39:47;;;;;;;7.10;6.22;;;9.20;51.60;;;;;;2097697;28;20094;-67
2022/04/17 00:40:47;;;;;;;8.00;5.30;;;9.20;51.80;;;;;;2093409;28;20542;-67
2022/04/17 00:41:48;;;;;;;8.00;5.97;;;9.20;52.00;;;;;;2097399;28;20416;-67
2022/04/17 00:42:49;;;;;;;8.05;6.40;;;9.20;52.00;;;;;;2099319;28;20080;-67
2022/04/17 00:43:50;;;;;;;7.95;5.93;;;9.20;51.90;;;;;;2097596;28;20024;-67
2022/04/17 00:44:50;;;;;;;7.70;5.38;;;9.20;51.90;;;;;;2099522;28;20486;-67
2022/04/17 00:45:55;;;;;;;7.72;5.85;;;9.10;52.00;;;;;;2097435;28;20036;-67
2022/04/17 00:46:55;;;;;;;9.27;5.90;;;9.10;52.20;;;;;;2094635;28;20450;-67
2022/04/17 00:47:56;;;;;;;7.93;6.30;;;9.20;52.50;;;;;;2092495;28;20709;-67
2022/04/17 00:48:56;;;;;;;9.38;5.88;;;9.10;52.50;;;;;;2095879;28;20024;-67
2022/04/17 00:49:57;;;;;;;9.02;6.07;;;9.10;52.60;;;;;;2096604;28;20016;-67
2022/04/17 00:50:58;;;;;;;8.32;5.88;;;9.10;52.50;;;;;;2097312;28;20446;-67
2022/04/17 00:51:59;;;;;;;6.90;5.90;;;9.10;52.60;;;;;;2093632;28;20021;-67
2022/04/17 00:53:01;;;;;;;11.38;5.60;;;9.00;52.60;;;;;;2093773;28;20384;-67
2022/04/17 00:54:07;;;;;;;7.45;5.97;;;9.00;52.30;;;;;;2096404;28;20025;-67
2022/04/17 00:55:09;;;;;;;8.23;6.25;;;9.00;52.50;;;;;;2091599;28;20025;-67
2022/04/17 00:56:09;;;;;;;7.10;5.70;;;9.00;52.70;;;;;;2097371;28;20040;-67
2022/04/17 00:57:17;;;;;;;7.72;5.45;;;9.00;52.80;;;;;;2097096;28;20033;-67
2022/04/17 00:58:18;;;;;;;10.32;6.00;;;9.00;53.20;;;;;;2093541;28;20074;-67
2022/04/17 00:59:20;;;;;;;6.82;5.82;;;9.00;53.10;;;;;;2093085;28;20388;-67
2022/04/17 01:00:21;;;;;;;8.63;6.20;;;9.00;53.10;;;;;;2101813;28;20027;-67
2022/04/17 01:01:22;;;;;;;7.60;5.85;;;9.00;53.10;;;;;;2104350;28;20022;-67
2022/04/17 01:02:23;;;;;;;7.70;5.55;;;9.00;53.10;;;;;;2096798;28;20440;-67
2022/04/17 01:03:24;;;;;;;8.35;6.45;;;8.90;53.10;;;;;;2095031;28;20058;-67
2022/04/17 01:04:24;;;;;;;9.20;6.38;;;8.90;53.30;;;;;;2096643;28;20485;-68
2022/04/17 01:05:25;;;;;;;10.38;5.80;;;8.90;53.20;;;;;;2108459;28;20606;-67
2022/04/17 01:06:26;;;;;;;10.02;5.82;;;8.90;53.30;;;;;;2110559;28;20156;-67
2022/04/17 01:07:27;;;;;;;9.18;6.28;;;8.90;53.30;;;;;;2096541;28;20392;-67
2022/04/17 01:08:28;;;;;;;9.00;5.70;;;8.90;53.50;;;;;;2093468;28;20021;-67
2022/04/17 01:09:33;;;;;;;9.40;6.40;;;8.90;53.70;;;;;;2094349;28;20032;-67
2022/04/17 01:10:33;;;;;;;7.40;5.78;;;8.90;53.80;;;;;;2096760;28;20480;-67
2022/04/17 01:11:38;;;;;;;7.47;6.03;;;8.80;54.40;;;;;;2095247;28;20476;-67
2022/04/17 01:12:39;;;;;;;8.05;5.95;;;8.80;54.00;;;;;;2097453;28;20107;-67
2022/04/17 01:13:42;;;;;;;7.15;5.55;;;8.80;53.90;;;;;;2094747;28;20523;-67
2022/04/17 01:14:43;;;;;;;8.43;6.53;;;8.80;54.10;;;;;;2097172;28;20035;-67
2022/04/17 01:15:44;;;;;;;8.77;6.47;;;8.80;54.30;;;;;;2095933;28;20025;-67
2022/04/17 01:16:45;;;;;;;10.23;6.50;;;8.80;54.40;;;;;;2092688;28;20033;-67
2022/04/17 01:17:45;;;;;;;7.03;6.22;;;8.70;54.50;;;;;;2093685;28;20036;-67
2022/04/17 01:19:04;;;;;;;10.38;6.25;;;8.70;54.60;;;;;;2097147;28;20071;-67
2022/04/17 01:20:06;;;;;;;8.07;6.57;;;8.70;54.80;;;;;;2084629;28;20538;-67
2022/04/17 01:21:08;;;;;;;8.05;6.50;;;8.60;54.70;;;;;;2110885;27;20023;-67
2022/04/17 01:22:13;;;;;;;9.38;6.68;;;8.60;54.80;;;;;;2109002;27;20577;-67
2022/04/17 01:27:12;;;;;;;8.50;5.97;;;8.50;55.10;;;;;;2093181;28;20028;-67
2022/04/17 01:28:12;;;;;;;10.38;6.57;;;8.40;55.20;;;;;;2094099;28;20107;-67
2022/04/17 01:29:14;;;;;;;8.68;5.68;;;8.40;55.40;;;;;;2099091;28;20099;-67
2022/04/17 01:30:15;;;;;;;9.13;7.05;;;8.40;55.60;;;;;;2096580;28;20071;-67
2022/04/17 01:31:15;;;;;;;9.30;7.47;;;8.30;55.50;;;;;;2097539;28;20028;-67
2022/04/17 01:32:16;;;;;;;9.82;6.95;;;8.30;55.70;;;;;;2095923;28;20025;-66
2022/04/17 01:33:17;;;;;;;10.55;7.35;;;8.30;55.70;;;;;;2100230;28;20056;-67
2022/04/17 01:34:18;;;;;;;9.82;6.90;;;8.30;55.90;;;;;;2092743;28;20033;-67
2022/04/17 01:35:19;;;;;;;9.43;7.00;;;8.20;55.90;;;;;;2094354;28;20103;-67
2022/04/17 01:36:19;;;;;;;10.57;7.40;;;8.20;56.00;;;;;;2096666;28;20024;-67
2022/04/17 01:37:20;;;;;;;10.02;7.57;;;8.20;56.20;;;;;;2092353;28;20100;-67
2022/04/17 01:38:21;;;;;;;9.93;7.03;;;8.10;56.30;;;;;;2087085;28;20021;-67
2022/04/17 01:39:22;;;;;;;6.97;5.72;;;8.10;56.40;;;;;;2092912;28;20063;-67
2022/04/17 01:40:22;;;;;;;7.95;6.32;;;8.10;56.40;;;;;;2095441;28;20099;-67
2022/04/17 01:41:23;;;;;;;8.77;6.55;;;8.10;56.40;;;;;;2102385;28;20016;-67
2022/04/17 01:42:23;;;;;;;9.57;6.97;;;8.00;56.40;;;;;;2104090;28;20091;-67
2022/04/17 01:43:24;;;;;;;8.82;6.75;;;8.00;56.60;;;;;;2097100;28;20039;-67
2022/04/17 01:44:27;;;;;;;9.38;6.90;;;8.00;56.90;;;;;;2096482;28;20811;-67
2022/04/17 01:45:28;;;;;;;10.80;7.35;;;7.90;56.80;;;;;;2093392;28;20021;-67
2022/04/17 01:46:29;;;;;;;9.90;7.10;;;7.90;56.90;;;;;;2096566;28;20093;-67
2022/04/17 01:47:30;;;;;;;9.95;6.95;;;7.90;57.10;;;;;;2095793;28;20028;-66
2022/04/17 01:48:31;;;;;;;10.20;6.78;;;7.90;57.20;;;;;;2095992;28;20094;-66
2022/04/17 01:49:31;;;;;;;8.27;6.72;;;7.80;57.40;;;;;;2096881;28;20060;-66
2022/04/17 01:50:32;;;;;;;9.80;7.05;;;7.80;57.50;;;;;;2097181;28;20012;-66
2022/04/17 01:51:38;;;;;;;9.52;7.32;;;7.80;57.50;;;;;;2096580;28;20607;-66
2022/04/17 01:52:38;;;;;;;11.95;8.13;;;7.70;57.90;;;;;;2112666;28;20023;-66
2022/04/17 01:53:39;;;;;;;10.35;7.10;;;7.70;58.10;;;;;;2111033;28;20031;-67
2022/04/17 01:54:40;;;;;;;11.93;7.78;;;7.70;58.20;;;;;;2096930;28;20028;-67
2022/04/17 01:55:40;;;;;;;8.07;7.03;;;7.60;58.10;;;;;;2092160;28;20035;-67
2022/04/17 01:56:42;;;;;;;8.55;7.03;;;7.60;58.20;;;;;;2095942;28;20025;-67
2022/04/17 01:57:42;;;;;;;11.18;7.40;;;7.60;58.20;;;;;;2096455;28;20057;-67
2022/04/17 01:58:43;;;;;;;9.90;7.18;;;7.60;58.50;;;;;;2094015;28;20055;-67
2022/04/17 01:59:43;;;;;;;10.00;7.20;;;7.50;58.50;;;;;;2096325;28;20025;-66
2022/04/17 02:00:44;;;;;;;7.60;6.55;;;7.50;58.30;;;;;;2096967;28;20049;-66
2022/04/17 02:01:45;;;;;;;8.93;6.38;;;7.50;58.50;;;;;;2093317;28;20033;-67
2022/04/17 02:02:46;;;;;;;9.27;7.18;;;7.40;58.40;;;;;;2096928;28;20484;-67
2022/04/17 02:03:46;;;;;;;8.77;6.75;;;7.40;58.50;;;;;;2092679;28;20060;-66
2022/04/17 02:04:47;;;;;;;9.50;7.30;;;7.40;58.70;;;;;;2093138;28;20032;-66
2022/04/17 02:05:47;;;;;;;10.93;7.43;;;7.30;58.70;;;;;;2096825;28;20031;-66
2022/04/17 02:06:48;;;;;;;9.48;6.85;;;7.30;58.90;;;;;;2098568;28;20024;-66
2022/04/17 02:07:48;;;;;;;9.85;6.68;;;7.30;58.80;;;;;;2093768;28;20629;-66
2022/04/17 02:08:51;;;;;;;9.40;7.00;;;7.30;58.90;;;;;;2095828;28;20569;-66
2022/04/17 02:09:51;;;;;;;8.40;5.82;;;7.20;59.10;;;;;;2096285;28;20110;-66
2022/04/17 02:10:52;;;;;;;9.77;7.05;;;7.20;59.00;;;;;;2096137;28;20024;-66
2022/04/17 02:11:53;;;;;;;10.73;7.50;;;7.20;59.00;;;;;;2092711;28;20533;-66
2022/04/17 02:12:54;;;;;;;10.25;7.68;;;7.10;59.20;;;;;;2095836;28;20029;-66
2022/04/17 02:13:55;;;;;;;9.15;6.32;;;7.10;59.40;;;;;;2094973;28;20052;-66
2022/04/17 02:14:56;;;;;;;10.55;6.97;;;7.10;59.40;;;;;;2095444;28;20025;-66
2022/04/17 02:15:56;;;;;;;9.65;7.10;;;7.10;59.40;;;;;;2092752;28;20029;-66
2022/04/17 02:16:57;;;;;;;8.07;6.35;;;7.00;59.70;;;;;;2090482;28;20025;-66
2022/04/17 02:17:57;;;;;;;8.00;6.50;;;7.00;59.80;;;;;;2096650;28;20074;-66
2022/04/17 02:19:00;;;;;;;10.25;6.70;;;7.00;59.80;;;;;;2095251;28;20101;-66
2022/04/17 02:20:00;;;;;;;9.00;6.30;;;7.00;59.80;;;;;;2094764;28;20025;-66
2022/04/17 02:21:01;;;;;;;10.02;6.95;;;7.00;59.80;;;;;;2093780;28;20075;-66
2022/04/17 02:22:02;;;;;;;9.18;6.82;;;6.90;59.70;;;;;;2094788;28;20532;-66
2022/04/17 02:23:02;;;;;;;9.02;6.72;;;6.90;60.00;;;;;;2096469;28;20031;-66
2022/04/17 02:24:04;;;;;;;8.55;7.35;;;6.80;60.20;;;;;;2096353;28;20028;-66
2022/04/17 02:25:05;;;;;;;9.05;6.43;;;6.80;60.70;;;;;;2111200;28;20423;-66
2022/04/17 02:26:05;;;;;;;6.88;6.03;;;6.80;60.60;;;;;;2109823;27;20108;-66
2022/04/17 02:27:06;;;;;;;8.50;6.60;;;6.80;60.60;;;;;;2096571;28;20030;-66
2022/04/17 02:28:07;;;;;;;8.18;6.32;;;6.80;60.80;;;;;;2095974;28;20021;-66
2022/04/17 02:29:08;;;;;;;10.07;6.43;;;6.70;60.70;;;;;;2099154;28;20008;-66
2022/04/17 02:30:08;;;;;;;8.82;7.30;;;6.70;60.80;;;;;;2095864;28;20063;-66
2022/04/17 02:31:10;;;;;;;12.18;6.72;;;6.70;61.10;;;;;;2096442;28;20020;-66
2022/04/17 02:32:11;;;;;;;7.35;5.97;;;6.70;61.50;;;;;;2094378;28;20032;-66
2022/04/17 02:33:12;;;;;;;7.68;6.45;;;6.60;61.40;;;;;;2094752;28;20039;-66
2022/04/17 02:34:13;;;;;;;9.38;6.95;;;6.60;61.40;;;;;;2096755;28;20016;-66
2022/04/17 02:35:14;;;;;;;7.28;6.05;;;6.60;61.80;;;;;;2095585;28;20032;-66
2022/04/17 02:36:15;;;;;;;7.95;6.47;;;6.60;62.00;;;;;;2096685;28;20400;-67
2022/04/17 02:37:15;;;;;;;7.80;6.18;;;6.50;62.00;;;;;;2091925;28;20055;-66
2022/04/17 02:38:16;;;;;;;7.80;6.40;;;6.50;62.00;;;;;;2096092;28;20041;-66
2022/04/17 02:39:16;;;;;;;8.02;6.03;;;6.50;62.10;;;;;;2096451;28;20146;-66
2022/04/17 02:40:17;;;;;;;7.22;6.45;;;6.50;62.10;;;;;;2091187;28;20021;-66
2022/04/17 02:41:17;;;;;;;12.30;6.85;;;6.40;62.90;;;;;;2096245;28;20024;-66
2022/04/17 02:42:18;;;;;;;8.30;6.13;;;6.40;62.40;;;;;;2092876;28;20029;-66
2022/04/17 02:43:19;;;;;;;6.15;5.53;;;6.40;62.60;;;;;;2099090;28;20059;-66
2022/04/17 02:44:19;;;;;;;7.93;6.07;;;6.40;62.60;;;;;;2096485;28;20032;-66
2022/04/17 02:45:20;;;;;;;8.60;6.50;;;6.30;62.60;;;;;;2095212;28;20027;-66
2022/04/17 02:47:43;;;;;;;9.30;6.55;;;6.30;63.00;;;;;;2093848;28;20033;-66
2022/04/17 02:48:44;;;;;;;9.20;5.88;;;6.20;62.90;;;;;;2097696;28;20032;-66
2022/04/17 02:49:45;;;;;;;7.45;6.05;;;6.20;62.90;;;;;;2097005;28;20044;-66
2022/04/17 02:50:47;;;;;;;8.55;6.50;;;6.20;62.90;;;;;;2096820;28;20028;-66
2022/04/17 02:51:47;;;;;;;7.68;6.85;;;6.10;63.00;;;;;;2092054;28;20044;-66
2022/04/17 02:52:49;;;;;;;7.43;6.15;;;6.10;63.50;;;;;;2096565;28;20468;-66
2022/04/17 02:53:49;;;;;;;8.20;6.80;;;6.10;63.60;;;;;;2092093;28;20029;-66
2022/04/17 02:54:50;;;;;;;10.35;5.88;;;6.10;63.80;;;;;;2095043;28;20032;-66
2022/04/17 02:55:51;;;;;;;10.82;6.68;;;6.10;63.80;;;;;;2095433;28;20029;-66
2022/04/17 02:56:52;;;;;;;7.57;6.18;;;6.00;64.00;;;;;;2094202;28;20033;-66
2022/04/17 02:57:54;;;;;;;8.00;6.15;;;6.00;64.10;;;;;;2094303;28;20091;-66
2022/04/17 02:58:54;;;;;;;9.07;6.18;;;6.00;64.10;;;;;;2096470;28;20020;-66
2022/04/17 02:59:55;;;;;;;6.75;5.95;;;6.00;63.90;;;;;;2099517;28;20028;-66
2022/04/17 03:06:12;;;;;;;7.85;6.40;;;5.80;64.70;;;;;;2092864;28;20032;-66
2022/04/17 03:07:12;;;;;;;7.60;6.75;;;5.80;64.90;;;;;;2095830;28;20024;-66
2022/04/17 03:08:16;;;;;;;7.30;6.45;;;5.70;65.10;;;;;;2095494;28;20478;-66
2022/04/17 03:09:18;;;;;;;7.75;6.63;;;5.70;65.30;;;;;;2094405;28;20028;-66
2022/04/17 03:10:18;;;;;;;6.55;5.30;;;5.70;65.40;;;;;;2093396;28;20035;-66
2022/04/17 03:11:19;;;;;;;7.43;6.20;;;5.70;65.40;;;;;;2093863;28;20533;-66
2022/04/17 03:12:20;;;;;;;7.53;6.15;;;5.70;65.40;;;;;;2095984;28;20025;-66
2022/04/17 03:13:20;;;;;;;6.97;5.63;;;5.70;65.40;;;;;;2096950;28;20072;-66
2022/04/17 03:14:20;;;;;;;7.35;5.35;;;5.60;65.40;;;;;;2096234;28;20039;-66
2022/04/17 03:15:21;;;;;;;9.48;6.00;;;5.70;65.50;;;;;;2098579;28;20024;-66
2022/04/17 03:16:21;;;;;;;7.80;6.25;;;5.60;65.80;;;;;;2091606;28;20029;-66
2022/04/17 03:17:22;;;;;;;8.63;5.50;;;5.60;66.30;;;;;;2095532;28;20047;-66
2022/04/17 03:18:23;;;;;;;6.75;6.03;;;5.60;66.50;;;;;;2093005;28;20104;-66
2022/04/17 03:19:23;;;;;;;8.73;6.65;;;5.60;66.60;;;;;;2092611;28;20070;-66
2022/04/17 03:20:24;;;;;;;7.93;5.75;;;5.50;66.50;;;;;;2091803;28;20051;-66
2022/04/17 03:21:25;;;;;;;8.75;6.05;;;5.50;66.50;;;;;;2092242;28;20035;-66
2022/04/17 03:22:26;;;;;;;6.50;5.18;;;5.50;66.20;;;;;;2096054;28;20063;-66
2022/04/17 03:23:26;;;;;;;7.75;6.22;;;5.50;66.20;;;;;;2096153;28;20028;-66
2022/04/17 03:24:27;;;;;;;6.93;5.85;;;5.50;66.40;;;;;;2093855;28;20020;-66
2022/04/17 03:25:29;;;;;;;6.75;5.28;;;5.50;66.70;;;;;;2092070;28;20033;-66
2022/04/17 03:26:30;;;;;;;6.30;5.70;;;5.40;67.00;;;;;;2095938;28;20024;-66
2022/04/17 03:27:31;;;;;;;7.68;6.03;;;5.40;67.00;;;;;;2098372;28;20017;-66
2022/04/17 03:28:31;;;;;;;7.07;5.93;;;5.40;67.20;;;;;;2095875;28;20408;-66
2022/04/17 03:29:32;;;;;;;7.38;6.28;;;5.40;67.50;;;;;;2096236;28;20024;-66
2022/04/17 03:30:32;;;;;;;7.45;5.95;;;5.40;67.30;;;;;;2096217;28;20628;-66
2022/04/17 03:31:33;;;;;;;7.72;5.55;;;5.40;67.50;;;;;;2097153;28;20714;-66
2022/04/17 03:32:33;;;;;;;6.93;5.90;;;5.30;67.70;;;;;;2092340;28;20094;-66
2022/04/17 03:33:34;;;;;;;10.60;6.72;;;5.40;67.90;;;;;;2095304;28;20033;-66
2022/04/17 03:34:34;;;;;;;6.70;5.95;;;5.30;68.20;;;;;;2093559;28;20032;-66
2022/04/17 03:35:35;;;;;;;7.25;5.90;;;5.30;68.40;;;;;;2091803;28;20040;-66
2022/04/17 03:36:39;;;;;;;6.35;5.75;;;5.30;68.50;;;;;;2096317;28;20029;-66
2022/04/17 03:37:43;;;;;;;8.20;5.60;;;5.20;68.40;;;;;;2092440;28;20096;-66
2022/04/17 03:38:44;;;;;;;7.45;6.22;;;5.20;68.50;;;;;;2095137;28;20484;-66
2022/04/17 03:39:45;;;;;;;8.95;5.80;;;5.20;68.60;;;;;;2096215;28;20434;-66
2022/04/17 03:40:45;;;;;;;8.38;5.82;;;5.20;68.80;;;;;;2092489;28;20029;-66
2022/04/17 03:41:47;;;;;;;6.63;6.00;;;5.20;68.90;;;;;;2095996;28;20518;-66
2022/04/17 03:42:48;;;;;;;7.07;5.90;;;5.20;69.20;;;;;;2097464;28;20385;-66
2022/04/17 03:43:48;;;;;;;8.55;6.50;;;5.10;69.20;;;;;;2092286;28;20099;-66
2022/04/17 03:44:49;;;;;;;6.57;5.90;;;5.10;69.30;;;;;;2095727;28;20070;-66
2022/04/17 03:45:49;;;;;;;7.47;6.68;;;5.10;69.40;;;;;;2092716;28;20029;-66
2022/04/17 03:46:51;;;;;;;8.07;6.07;;;5.10;69.60;;;;;;2092551;28;20029;-66
2022/04/17 03:47:52;;;;;;;8.55;5.88;;;5.10;69.50;;;;;;2096115;28;20029;-66
2022/04/17 03:48:52;;;;;;;7.35;6.20;;;5.10;69.50;;;;;;2094154;28;20040;-66
2022/04/17 03:49:53;;;;;;;6.65;5.50;;;5.10;69.70;;;;;;2094447;28;20017;-66
2022/04/17 03:50:53;;;;;;;8.38;5.55;;;5.00;69.60;;;;;;2096408;28;20078;-66
2022/04/17 03:51:54;;;;;;;9.10;6.38;;;5.00;69.80;;;;;;2095378;28;20098;-66
2022/04/17 03:52:55;;;;;;;8.27;5.70;;;5.00;70.20;;;;;;2095637;28;20381;-66
2022/04/17 03:53:55;;;;;;;6.75;6.05;;;4.90;70.30;;;;;;2092688;28;20060;-66
2022/04/17 03:54:56;;;;;;;8.40;6.90;;;5.00;70.60;;;;;;2096218;28;20437;-66
2022/04/17 03:55:56;;;;;;;7.32;5.75;;;5.00;70.80;;;;;;2096308;28;20033;-67
2022/04/17 03:56:57;;;;;;;8.10;6.63;;;4.90;70.70;;;;;;2094286;28;20100;-66
2022/04/17 03:57:58;;;;;;;6.88;6.18;;;4.90;71.20;;;;;;2093448;28;20032;-66
2022/04/17 03:58:58;;;;;;;8.98;6.80;;;4.90;71.30;;;;;;2097864;28;20541;-66
2022/04/17 03:59:59;;;;;;;7.40;5.85;;;4.90;71.30;;;;;;2099204;28;20024;-66
2022/04/17 04:01:01;;;;;;;7.75;5.63;;;4.90;71.80;;;;;;2100481;28;20034;-66
2022/04/17 04:02:02;;;;;;;7.55;5.95;;;4.90;71.00;;;;;;2097260;28;20164;-66
2022/04/17 04:03:02;;;;;;;8.05;6.30;;;4.90;70.80;;;;;;2095156;28;20095;-66
2022/04/17 04:04:04;;;;;;;7.88;6.50;;;4.90;71.10;;;;;;2095268;28;20025;-66
2022/04/17 04:05:07;;;;;;;8.35;6.68;;;4.80;71.40;;;;;;2096267;28;20024;-66
2022/04/17 04:06:08;;;;;;;9.05;6.32;;;4.80;71.20;;;;;;2095172;28;20537;-66
2022/04/17 04:07:09;;;;;;;9.70;6.65;;;4.80;71.80;;;;;;2097371;28;20260;-66
2022/04/17 04:08:09;;;;;;;7.22;6.22;;;4.80;72.30;;;;;;2095618;28;20020;-66
2022/04/17 04:09:10;;;;;;;6.82;5.68;;;4.80;72.40;;;;;;2098125;28;20476;-66
2022/04/17 04:10:10;;;;;;;9.70;6.97;;;4.80;72.30;;;;;;2101406;28;20052;-66
2022/04/17 04:11:11;;;;;;;6.63;5.50;;;4.80;72.30;;;;;;2099578;28;20115;-66
2022/04/17 04:12:11;;;;;;;7.60;6.47;;;4.70;72.30;;;;;;2096848;28;20032;-66
2022/04/17 04:13:12;;;;;;;8.25;6.43;;;4.70;72.50;;;;;;2096148;28;20032;-66
2022/04/17 04:14:13;;;;;;;8.57;7.13;;;4.70;72.80;;;;;;2095907;28;20056;-66
2022/04/17 04:15:13;;;;;;;8.70;6.47;;;4.70;72.70;;;;;;2091422;28;20037;-66
2022/04/17 04:16:14;;;;;;;10.57;7.38;;;4.70;72.90;;;;;;2093923;28;20484;-66
2022/04/17 04:17:15;;;;;;;6.85;5.88;;;4.70;72.80;;;;;;2097434;28;20115;-66
2022/04/17 04:18:15;;;;;;;7.53;6.70;;;4.70;73.00;;;;;;2094033;28;20035;-66
2022/04/17 04:19:16;;;;;;;17.17;7.05;;;4.70;73.40;;;;;;2093464;28;20036;-66
2022/04/17 04:20:16;;;;;;;6.85;6.13;;;4.70;73.50;;;;;;2097782;28;20495;-66
2022/04/17 04:21:17;;;;;;;7.35;6.10;;;4.60;73.40;;;;;;2093082;28;20036;-66
2022/04/17 04:22:17;;;;;;;7.65;5.97;;;4.60;73.10;;;;;;2097583;28;20382;-66
2022/04/17 04:23:21;;;;;;;6.93;6.22;;;4.60;73.10;;;;;;2097322;28;20096;-66
2022/04/17 04:24:24;;;;;;;7.13;6.40;;;4.60;73.40;;;;;;2093811;28;20021;-66
2022/04/17 04:25:25;;;;;;;11.88;6.60;;;4.60;73.60;;;;;;2095713;28;20740;-66
2022/04/17 04:26:25;;;;;;;7.30;5.85;;;4.60;73.90;;;;;;2095343;28;20047;-66
2022/04/17 04:28:45;;;;;;;7.55;6.32;;;4.60;73.50;;;;;;2093497;28;20032;-66
2022/04/17 04:29:46;;;;;;;9.88;7.22;;;4.50;73.70;;;;;;2097488;28;20048;-66
2022/04/17 04:30:46;;;;;;;11.15;6.60;;;4.50;74.20;;;;;;2097455;28;20028;-66
2022/04/17 04:31:47;;;;;;;8.45;6.85;;;4.50;74.60;;;;;;2097308;28;20374;-66
2022/04/17 04:32:56;;;;;;;7.22;6.43;;;4.50;74.70;;;;;;2093350;28;20103;-66
2022/04/17 04:33:56;;;;;;;7.90;7.00;;;4.50;75.70;;;;;;2090641;28;20075;-66
2022/04/17 04:34:59;;;;;;;9.13;6.88;;;4.50;75.10;;;;;;2099628;28;20097;-66
2022/04/17 04:35:59;;;;;;;8.40;6.43;;;4.50;75.00;;;;;;2095158;28;20025;-66
2022/04/17 04:37:00;;;;;;;8.75;6.85;;;4.50;74.80;;;;;;2093680;28;20075;-66
2022/04/17 04:38:01;;;;;;;6.63;6.00;;;4.50;75.10;;;;;;2096639;28;20025;-66
2022/04/17 04:39:02;;;;;;;11.20;7.28;;;4.40;75.10;;;;;;2096411;28;20024;-66
2022/04/17 04:40:05;;;;;;;9.55;6.70;;;4.40;75.50;;;;;;2096858;28;20024;-66
2022/04/17 04:41:06;;;;;;;7.95;6.85;;;4.40;75.40;;;;;;2096074;28;20047;-66
2022/04/17 04:42:07;;;;;;;8.40;6.80;;;4.40;75.80;;;;;;2093827;28;20035;-66
2022/04/17 04:43:07;;;;;;;7.60;6.60;;;4.40;75.70;;;;;;2096712;28;20107;-66
2022/04/17 04:44:08;;;;;;;9.10;6.72;;;4.40;75.60;;;;;;2096033;28;20028;-66
2022/04/17 04:46:27;;;;;;;8.80;6.63;;;4.40;76.20;;;;;;2096785;28;20028;-66
2022/04/17 04:47:28;;;;;;;11.90;7.03;;;4.40;75.90;;;;;;2093677;28;20036;-66
2022/04/17 04:49:47;;;;;;;7.85;6.18;;;4.40;76.40;;;;;;2093263;28;20029;-66
2022/04/17 04:50:48;;;;;;;10.40;7.10;;;4.40;76.50;;;;;;2095164;28;20025;-66
2022/04/17 04:51:49;;;;;;;8.95;7.32;;;4.30;76.90;;;;;;2096078;28;20029;-66
2022/04/17 04:52:49;;;;;;;8.75;7.03;;;4.30;77.20;;;;;;2096823;28;20047;-66
2022/04/17 04:53:50;;;;;;;10.43;7.53;;;4.30;77.70;;;;;;2093397;28;20083;-66
2022/04/17 04:54:50;;;;;;;8.05;6.57;;;4.30;78.10;;;;;;2098834;28;20531;-66
2022/04/17 04:55:53;;;;;;;8.50;7.43;;;4.30;78.40;;;;;;2093204;28;20053;-66
2022/04/17 04:56:54;;;;;;;9.15;7.57;;;4.30;78.40;;;;;;2093468;28;20632;-66
2022/04/17 04:57:54;;;;;;;9.38;7.50;;;4.30;78.90;;;;;;2094854;28;20028;-66
2022/04/17 04:58:55;;;;;;;8.85;7.30;;;4.30;79.30;;;;;;2094957;28;20370;-66
2022/04/17 04:59:56;;;;;;;8.32;7.38;;;4.30;79.10;;;;;;2094580;28;20044;-66
2022/04/17 05:00:56;;;;;;;10.07;8.27;;;4.30;79.20;;;;;;2094873;28;20033;-66
2022/04/17 05:01:57;;;;;;;9.43;7.68;;;4.30;79.80;;;;;;2094838;28;20105;-66
2022/04/17 05:02:58;;;;;;;8.80;6.75;;;4.30;79.50;;;;;;2096314;28;20472;-66
2022/04/17 05:03:58;;;;;;;11.65;8.05;;;4.30;79.20;;;;;;2094300;28;20729;-66
2022/04/17 05:04:59;;;;;;;11.63;8.48;;;4.30;79.60;;;;;;2097183;28;20036;-66
2022/04/17 05:05:59;;;;;;;10.27;7.97;;;4.30;80.00;;;;;;2099483;28;20034;-66
2022/04/17 05:07:00;;;;;;;10.02;7.53;;;4.30;81.10;;;;;;2099629;28;20079;-66
2022/04/17 05:08:00;;;;;;;10.75;8.10;;;4.30;80.70;;;;;;2093765;28;20794;-66
2022/04/17 05:09:01;;;;;;;9.65;8.00;;;4.30;81.30;;;;;;2096598;28;20399;-66
2022/04/17 05:10:02;;;;;;;9.88;7.97;;;4.30;81.10;;;;;;2099391;28;20051;-66
2022/04/17 05:11:03;;;;;;;9.32;8.13;;;4.30;81.10;;;;;;2095619;28;20020;-66
2022/04/17 05:12:04;;;;;;;12.68;8.60;;;4.30;81.30;;;;;;2095730;28;20499;-66
2022/04/17 05:13:05;;;;;;;11.50;8.93;;;4.30;81.20;;;;;;2096745;28;20044;-66
2022/04/17 05:14:07;;;;;;;10.98;7.80;;;4.30;81.60;;;;;;2096717;28;20754;-66
2022/04/17 05:15:11;;;;;;;9.00;7.13;;;4.30;81.50;;;;;;2093193;28;20037;-66
2022/04/17 05:16:13;;;;;;;12.13;9.00;;;4.30;81.30;;;;;;2093622;28;20021;-66
2022/04/17 05:17:13;;;;;;;13.48;8.98;;;4.30;82.20;;;;;;2096994;28;20028;-67
2022/04/17 05:18:14;;;;;;;12.27;8.50;;;4.30;82.60;;;;;;2093414;28;20039;-66
2022/04/17 05:19:27;;;;;;;11.80;9.13;;;4.30;82.90;;;;;;2093945;28;20032;-66
2022/04/17 05:20:29;;;;;;;12.82;9.38;;;4.30;82.70;;;;;;2094238;28;20115;-66
2022/04/17 05:21:32;;;;;;;17.02;10.90;;;4.30;84.70;;;;;;2096790;28;20434;-66
2022/04/17 05:22:33;;;;;;;14.07;9.55;;;4.30;86.80;;;;;;2097036;28;20020;-66
2022/04/17 05:23:36;;;;;;;9.52;7.50;;;4.30;87.50;;;;;;2096507;28;20075;-66
2022/04/17 05:24:38;;;;;;;13.48;9.73;;;4.30;86.40;;;;;;2100941;28;20017;-66
2022/04/17 05:25:38;;;;;;;12.25;9.95;;;4.30;87.50;;;;;;2094910;28;20050;-66
2022/04/17 05:26:39;;;;;;;10.95;8.50;;;4.30;89.30;;;;;;2095140;28;20111;-66
2022/04/17 05:27:39;;;;;;;10.70;8.85;;;4.40;88.30;;;;;;2092970;28;20535;-66
2022/04/17 05:28:40;;;;;;;13.75;10.02;;;4.40;88.60;;;;;;2097320;28;20035;-66
2022/04/17 05:29:41;;;;;;;11.32;8.93;;;4.30;89.10;;;;;;2096658;28;20144;-66
2022/04/17 05:30:42;;;;;;;12.50;9.45;;;4.40;89.80;;;;;;2097845;28;20089;-66
2022/04/17 05:31:42;;;;;;;13.65;9.88;;;4.40;90.30;;;;;;2092496;28;20618;-66
2022/04/17 05:32:43;;;;;;;12.30;9.38;;;4.40;90.60;;;;;;2094460;28;20440;-66
2022/04/17 05:33:43;;;;;;;14.98;10.18;;;4.50;91.80;;;;;;2096287;28;20041;-66
2022/04/17 05:34:44;;;;;;;13.73;10.60;;;4.50;92.00;;;;;;2095572;28;20052;-66
2022/04/17 05:35:45;;;;;;;15.52;10.70;;;4.60;92.80;;;;;;2095982;28;20025;-66